Time;durP1;ratioP1;P1;durP2;ratioP2;P2;SDS_P1;SDS_P2;PMS_P1;PMS_P2;Temp;Humidity;BMP_temperature;BMP_pressure;BME280_temperature;BME280_humidity;BME280_pressure;Samples;Min_cycle;Max_cycle;Signal;HPM_P1;HPM_P2
2023/07/21 00:01:16;;;;;;;;;;;23.70;46.60;;;23.90;32.58;98193.16;4978635;28;124162;-82
2023/07/21 00:03:45;;;;;;;;;;;23.70;46.80;;;23.90;32.62;98192.38;4981372;28;123569;-81
2023/07/21 00:06:17;;;;;;;;;;;23.60;46.80;;;23.88;32.91;98189.16;4976846;28;118783;-82
2023/07/21 00:08:43;;;;;;;;;;;23.60;47.00;;;23.87;32.78;98184.75;4986003;28;118607;-82
2023/07/21 00:11:10;;;;;;;;;;;23.60;47.00;;;23.84;32.77;98186.38;4984338;28;124187;-82
2023/07/21 00:13:39;;;;;;;;;;;23.60;47.10;;;23.82;32.85;98180.34;4983536;28;122786;-82
2023/07/21 00:16:06;;;;;;;;;;;23.60;47.20;;;23.79;33.08;98172.72;4980799;28;119805;-82
2023/07/21 00:18:33;;;;;;;;;;;23.60;47.30;;;23.78;33.31;98182.41;4997509;28;118658;-82
2023/07/21 00:21:00;;;;;;;;;;;23.50;47.90;;;23.73;32.86;98180.81;4982658;28;124413;-82
2023/07/21 00:23:31;;;;;;;;;;;23.50;47.10;;;23.68;32.93;98186.88;4971482;28;123312;-82
2023/07/21 00:25:58;;;;;;;;;;;23.50;47.20;;;23.64;33.04;98180.44;4979313;28;118905;-81
2023/07/21 00:28:26;;;;;;;;;;;23.40;47.00;;;23.62;33.08;98182.91;4985350;28;118084;-81
2023/07/21 00:30:52;;;;;;;;;;;23.40;47.20;;;23.60;33.14;98179.69;4986335;28;124051;-82
2023/07/21 00:33:19;;;;;;;;;;;23.40;47.40;;;23.57;33.13;98170.03;4985801;28;124491;-82
2023/07/21 00:35:45;;;;;;;;;;;23.40;47.60;;;23.50;33.46;98180.56;4986641;28;118866;-82
2023/07/21 00:38:11;;;;;;;;;;;23.30;47.70;;;23.46;33.63;98177.00;4989613;28;117833;-81
2023/07/21 00:40:38;;;;;;;;;;;23.30;47.70;;;23.43;33.55;98181.44;4979233;28;123651;-83
2023/07/21 00:43:09;;;;;;;;;;;23.20;47.70;;;23.41;33.57;98186.69;4988270;28;123939;-82
2023/07/21 00:45:39;;;;;;;;;;;23.20;47.70;;;23.40;33.73;98182.28;4985167;28;120373;-82
2023/07/21 00:48:09;;;;;;;;;;;23.20;47.70;;;23.40;33.65;98179.44;4977927;28;119571;-82
2023/07/21 00:50:50;;;;;;;;;;;23.20;47.80;;;23.41;33.49;98189.50;4986306;28;124365;-81
2023/07/21 00:53:16;;;;;;;;;;;23.20;48.00;;;23.41;33.49;98183.88;4983595;28;123870;-81
2023/07/21 00:55:45;;;;;;;;;;;23.20;48.00;;;23.40;33.58;98178.63;4979142;28;119438;-82
2023/07/21 00:58:12;;;;;;;;;;;23.10;47.90;;;23.37;33.55;98171.78;4984321;28;118872;-82
2023/07/21 01:00:41;;;;;;;;;;;23.10;48.10;;;23.34;33.73;98179.06;4987156;28;124310;-81
2023/07/21 01:03:12;;;;;;;;;;;23.10;48.20;;;23.34;33.74;98178.25;4997974;28;123943;-82
2023/07/21 01:05:43;;;;;;;;;;;23.10;48.30;;;23.32;33.82;98164.59;4984354;28;119102;-82
2023/07/21 01:08:13;;;;;;;;;;;23.10;49.10;;;23.31;33.92;98168.63;4981289;28;118692;-82
2023/07/21 01:10:40;;;;;;;;;;;23.10;48.50;;;23.28;33.68;98163.81;4985174;28;124238;-82
2023/07/21 01:13:10;;;;;;;;;;;23.00;48.60;;;23.27;33.97;98161.44;4969821;28;121867;-82
2023/07/21 01:15:43;;;;;;;;;;;23.00;48.50;;;23.28;34.02;98168.66;4971149;28;118546;-82
2023/07/21 01:18:16;;;;;;;;;;;23.00;48.60;;;23.28;34.00;98166.63;4986286;28;118655;-82
2023/07/21 01:20:43;;;;;;;;;;;23.00;48.60;;;23.29;33.82;98156.97;4984807;28;124102;-82
2023/07/21 01:23:28;;;;;;;;;;;23.00;48.60;;;23.30;34.24;98164.22;4980672;28;123915;-82
2023/07/21 01:25:59;;;;;;;;;;;23.00;48.70;;;23.30;33.70;98158.56;4970800;28;119622;-82
2023/07/21 01:28:27;;;;;;;;;;;23.00;48.80;;;23.29;33.93;98145.69;4980749;28;118945;-82
2023/07/21 01:30:54;;;;;;;;;;;23.00;48.70;;;23.29;33.80;98148.53;4984618;28;124257;-82
2023/07/21 01:33:21;;;;;;;;;;;23.00;48.50;;;23.28;33.72;98135.63;4997822;28;124100;-82
2023/07/21 01:35:48;;;;;;;;;;;23.00;48.40;;;23.25;33.62;98139.28;4975845;28;119732;-82
2023/07/21 01:38:16;;;;;;;;;;;23.00;48.40;;;23.24;33.81;98134.03;4971246;28;119621;-82
2023/07/21 01:40:43;;;;;;;;;;;23.00;48.50;;;23.24;34.06;98146.13;4968753;28;124186;-81
2023/07/21 01:43:11;;;;;;;;;;;23.00;48.60;;;23.25;34.20;98132.84;4985559;28;123705;-82
2023/07/21 01:45:38;;;;;;;;;;;23.00;48.80;;;23.24;34.26;98132.03;4985509;28;119497;-82
2023/07/21 01:48:05;;;;;;;;;;;23.00;48.90;;;23.24;34.20;98134.88;4968902;28;118722;-82
2023/07/21 01:50:31;;;;;;;;;;;23.00;49.00;;;23.24;34.36;98129.22;4980037;28;123563;-82
2023/07/21 01:53:00;;;;;;;;;;;23.00;49.20;;;23.24;34.19;98126.41;4975686;28;123912;-82
2023/07/21 01:55:35;;;;;;;;;;;22.90;49.20;;;23.25;34.46;98127.19;4984987;28;119234;-82
2023/07/21 01:58:03;;;;;;;;;;;22.90;49.30;;;23.24;34.59;98117.94;4983283;28;119365;-82
2023/07/21 02:00:35;;;;;;;;;;;22.90;49.40;;;23.22;34.60;98126.00;4977939;28;123981;-82
2023/07/21 02:03:03;;;;;;;;;;;22.90;49.50;;;23.21;34.62;98117.97;4976815;28;124254;-82
2023/07/21 02:05:33;;;;;;;;;;;22.90;49.60;;;23.19;34.86;98121.22;4978956;28;120099;-82
2023/07/21 02:07:59;;;;;;;;;;;22.90;49.70;;;23.18;34.91;98119.59;4987973;28;118243;-82
2023/07/21 02:10:25;;;;;;;;;;;22.90;49.80;;;23.17;34.77;98118.00;4977919;28;124226;-83
2023/07/21 02:12:54;;;;;;;;;;;22.90;50.00;;;23.16;35.16;98124.84;4984721;28;123768;-82
2023/07/21 02:15:20;;;;;;;;;;;22.90;50.10;;;23.10;35.73;98120.84;4987536;28;118434;-82
2023/07/21 02:17:49;;;;;;;;;;;22.80;50.80;;;23.01;35.61;98115.69;4976666;28;118764;-82
2023/07/21 02:20:16;;;;;;;;;;;22.80;50.70;;;22.94;35.79;98113.69;4986517;28;124432;-82
2023/07/21 02:22:43;;;;;;;;;;;22.70;50.70;;;22.85;36.17;98116.16;4974298;28;124313;-82
2023/07/21 02:25:09;;;;;;;;;;;22.60;51.30;;;22.74;36.12;98111.81;4984486;28;120421;-83
2023/07/21 02:27:36;;;;;;;;;;;22.60;51.30;;;22.70;36.25;98114.63;4987353;28;119753;-83
2023/07/21 02:30:06;;;;;;;;;;;22.50;51.20;;;22.67;36.23;98115.44;4968611;28;124150;-83
2023/07/21 02:32:32;;;;;;;;;;;22.50;51.30;;;22.65;36.34;98117.91;4986880;28;124536;-83
2023/07/21 02:35:01;;;;;;;;;;;22.50;51.40;;;22.65;36.56;98115.09;4984315;28;119455;-82
2023/07/21 02:37:27;;;;;;;;;;;22.40;51.50;;;22.66;36.57;98109.03;4985857;28;118910;-83
2023/07/21 02:39:55;;;;;;;;;;;22.40;51.60;;;22.69;36.63;98118.66;4984692;28;124339;-83
2023/07/21 02:42:21;;;;;;;;;;;22.40;51.80;;;22.72;36.34;98117.84;4978174;28;124505;-82
2023/07/21 02:44:47;;;;;;;;;;;22.40;51.80;;;22.70;36.33;98114.63;4967637;28;118227;-83
2023/07/21 02:47:15;;;;;;;;;;;22.40;51.90;;;22.59;36.69;98113.88;4977777;28;118693;-83
2023/07/21 02:49:42;;;;;;;;;;;22.40;51.80;;;22.56;36.29;98114.72;4970076;28;123282;-82
2023/07/21 02:52:08;;;;;;;;;;;22.30;51.70;;;22.57;36.36;98113.47;4980071;28;124656;-83
2023/07/21 02:54:34;;;;;;;;;;;22.30;51.80;;;22.57;36.67;98105.88;4988858;28;119192;-83
2023/07/21 02:57:01;;;;;;;;;;;22.30;51.80;;;22.58;36.50;98110.28;4977485;28;118763;-83
2023/07/21 02:59:27;;;;;;;;;;;22.30;51.90;;;22.50;36.74;98097.44;4976507;28;124027;-83
2023/07/21 03:01:54;;;;;;;;;;;22.30;52.00;;;22.43;36.48;98103.91;4982467;28;124081;-83
2023/07/21 03:04:22;;;;;;;;;;;22.20;51.90;;;22.42;36.56;98109.94;4986973;28;118791;-83
2023/07/21 03:06:49;;;;;;;;;;;22.20;51.90;;;22.38;36.89;98101.53;4983305;28;118710;-83
2023/07/21 03:09:15;;;;;;;;;;;22.20;52.00;;;22.39;36.58;98103.13;4989808;28;124327;-83
2023/07/21 03:11:42;;;;;;;;;;;22.20;52.00;;;22.41;36.83;98103.53;4970342;28;124080;-83
2023/07/21 03:14:09;;;;;;;;;;;22.20;52.10;;;22.42;36.86;98102.31;4982921;28;120486;-83
2023/07/21 03:16:36;;;;;;;;;;;22.20;52.30;;;22.38;36.77;98107.16;4973827;28;120409;-83
2023/07/21 03:19:02;;;;;;;;;;;22.20;52.30;;;22.36;37.07;98108.78;4982838;28;123997;-83
2023/07/21 03:21:29;;;;;;;;;;;22.10;52.50;;;22.33;37.24;98104.75;4979787;28;123951;-83
2023/07/21 03:23:58;;;;;;;;;;;22.10;52.70;;;22.32;37.08;98103.16;4978411;28;119278;-83
2023/07/21 03:26:27;;;;;;;;;;;22.10;52.70;;;22.32;37.32;98102.34;4984705;28;118795;-83
2023/07/21 03:28:59;;;;;;;;;;;22.10;52.80;;;22.32;37.20;98105.16;4982732;28;123422;-82
2023/07/21 03:31:25;;;;;;;;;;;22.10;52.90;;;22.32;37.34;98096.72;4970245;28;123054;-83
2023/07/21 03:33:52;;;;;;;;;;;22.10;53.00;;;22.33;37.32;98110.41;4971991;28;119485;-83
2023/07/21 03:36:21;;;;;;;;;;;22.10;53.00;;;22.32;37.13;98103.16;4967228;28;119674;-82
2023/07/21 03:38:47;;;;;;;;;;;22.10;53.00;;;22.31;37.46;98103.56;4975335;28;123815;-83
2023/07/21 03:41:13;;;;;;;;;;;22.00;53.00;;;22.27;37.42;98107.19;4983557;28;123837;-83
2023/07/21 03:43:42;;;;;;;;;;;22.00;53.10;;;22.25;37.59;98103.19;4976934;28;119403;-82
2023/07/21 03:46:08;;;;;;;;;;;22.00;53.20;;;22.23;37.66;98105.59;4979215;28;119476;-83
2023/07/21 03:48:35;;;;;;;;;;;22.00;53.40;;;22.20;37.61;98098.78;4978787;28;124810;-82
2023/07/21 03:51:05;;;;;;;;;;;22.00;53.40;;;22.15;37.91;98101.19;4983997;28;125432;-83
2023/07/21 03:53:32;;;;;;;;;;;22.00;53.40;;;22.10;37.90;98108.03;4970005;28;118547;-82
2023/07/21 03:55:58;;;;;;;;;;;21.90;53.60;;;22.04;38.07;98104.81;4979403;28;118853;-83
2023/07/21 03:58:25;;;;;;;;;;;21.80;54.00;;;21.98;38.32;98098.03;4982515;28;124985;-81
2023/07/21 04:00:55;;;;;;;;;;;21.70;54.20;;;21.93;38.64;98098.44;4980589;28;124106;-83
2023/07/21 04:03:24;;;;;;;;;;;21.70;54.60;;;21.88;38.80;98086.78;4979623;28;121184;-84
2023/07/21 04:05:57;;;;;;;;;;;21.70;54.50;;;21.83;38.76;98107.69;4984299;28;120312;-84
2023/07/21 04:08:24;;;;;;;;;;;21.60;54.60;;;21.81;38.91;98096.03;4970702;28;124644;-84
2023/07/21 04:10:50;;;;;;;;;;;21.60;54.60;;;21.84;39.13;98100.84;4984869;28;124541;-84
2023/07/21 04:13:16;;;;;;;;;;;21.60;54.80;;;21.92;38.84;98091.19;4983127;28;119450;-83
2023/07/21 04:15:42;;;;;;;;;;;21.60;54.90;;;21.95;38.71;98084.78;4977272;28;118804;-84
2023/07/21 04:18:09;;;;;;;;;;;21.60;55.10;;;21.95;38.81;98090.41;4984503;28;124211;-84
2023/07/21 04:20:35;;;;;;;;;;;21.60;54.80;;;21.92;38.46;98091.19;4985802;28;124595;-84
2023/07/21 04:23:02;;;;;;;;;;;21.70;54.90;;;21.90;38.66;98093.63;4974351;28;120116;-83
2023/07/21 04:25:28;;;;;;;;;;;21.60;55.00;;;21.87;39.01;98091.63;4966931;28;118260;-84
2023/07/21 04:27:55;;;;;;;;;;;21.60;55.20;;;21.87;39.13;98099.22;4998107;28;124103;-84
2023/07/21 04:30:22;;;;;;;;;;;21.60;55.30;;;21.83;39.12;98094.41;4987178;28;124565;-84
2023/07/21 04:32:48;;;;;;;;;;;21.60;55.30;;;21.81;39.05;98079.97;4984817;28;119994;-84
2023/07/21 04:35:16;;;;;;;;;;;21.60;55.40;;;21.81;39.17;98094.03;4984174;28;118652;-84
2023/07/21 04:37:42;;;;;;;;;;;21.60;55.40;;;21.81;39.47;98096.03;4974917;28;124010;-84
2023/07/21 04:40:10;;;;;;;;;;;21.60;55.90;;;21.81;39.54;98105.28;4987092;28;124089;-83
2023/07/21 04:42:37;;;;;;;;;;;21.60;55.70;;;21.82;39.12;98104.06;4988000;28;118522;-84
2023/07/21 04:45:04;;;;;;;;;;;21.60;55.70;;;21.84;39.32;98110.09;4973554;28;117746;-84
2023/07/21 04:47:33;;;;;;;;;;;21.60;55.90;;;21.89;39.29;98113.69;4989477;28;123229;-84
2023/07/21 04:49:59;;;;;;;;;;;21.60;56.00;;;21.91;39.34;98112.09;4984798;28;124006;-84
2023/07/21 04:52:25;;;;;;;;;;;21.60;55.80;;;21.94;39.81;98113.28;4986292;28;120177;-84
2023/07/21 04:54:52;;;;;;;;;;;21.60;56.20;;;21.95;39.20;98112.91;4980004;28;120341;-82
2023/07/21 04:57:18;;;;;;;;;;;21.60;56.10;;;21.97;39.20;98110.47;4988504;28;123779;-82
2023/07/21 04:59:45;;;;;;;;;;;21.60;56.10;;;22.00;39.26;98109.69;4966638;28;123484;-82
2023/07/21 05:02:11;;;;;;;;;;;21.60;56.00;;;22.03;39.38;98108.84;4985104;28;119467;-82
2023/07/21 05:04:38;;;;;;;;;;;21.70;56.10;;;22.05;39.38;98112.03;4982063;28;118667;-81
2023/07/21 05:07:05;;;;;;;;;;;21.70;56.30;;;22.09;39.49;98108.44;4987512;28;124520;-82
2023/07/21 05:09:31;;;;;;;;;;;21.70;56.60;;;22.13;40.03;98112.03;4980810;28;124228;-81
2023/07/21 05:11:58;;;;;;;;;;;21.80;57.20;;;22.18;40.05;98106.00;4983186;28;119689;-81
2023/07/21 05:14:24;;;;;;;;;;;21.80;57.60;;;22.21;40.14;98119.28;4981782;28;117938;-82
2023/07/21 05:16:50;;;;;;;;;;;21.80;57.40;;;22.22;40.34;98113.25;4986508;28;124735;-81
2023/07/21 05:19:16;;;;;;;;;;;21.80;57.60;;;22.22;40.57;98115.25;4981256;28;125321;-81
2023/07/21 05:21:42;;;;;;;;;;;21.80;58.10;;;22.26;40.65;98110.41;4984521;28;119601;-82
2023/07/21 05:24:09;;;;;;;;;;;21.80;58.20;;;22.27;40.05;98104.38;4983427;28;118645;-81
2023/07/21 05:26:36;;;;;;;;;;;21.90;57.90;;;22.30;40.11;98113.19;4984636;28;124544;-82
2023/07/21 05:29:03;;;;;;;;;;;21.90;57.70;;;22.31;39.78;98110.00;4981365;28;123952;-83
2023/07/21 05:31:30;;;;;;;;;;;21.90;57.60;;;22.36;39.93;98103.16;4975830;28;121664;-81
2023/07/21 05:33:56;;;;;;;;;;;22.00;57.60;;;22.39;39.76;98107.97;4978458;28;118997;-81
2023/07/21 05:36:24;;;;;;;;;;;22.00;57.60;;;22.43;39.57;98103.91;4971027;28;124469;-81
2023/07/21 05:38:51;;;;;;;;;;;22.00;57.40;;;22.46;39.81;98108.72;4965347;28;123422;-82
2023/07/21 05:41:18;;;;;;;;;;;22.10;57.50;;;22.52;39.65;98106.28;4980176;28;120126;-81
2023/07/21 05:43:45;;;;;;;;;;;22.10;57.50;;;22.56;39.50;98097.81;4973623;28;119473;-82
2023/07/21 05:46:12;;;;;;;;;;;22.10;57.40;;;22.60;39.34;98101.44;4980494;28;124417;-82
2023/07/21 05:48:38;;;;;;;;;;;22.20;57.30;;;22.63;39.34;98101.41;4973568;28;123311;-81
2023/07/21 05:51:04;;;;;;;;;;;22.20;57.30;;;22.68;39.38;98098.16;4982305;28;118345;-81
2023/07/21 05:53:35;;;;;;;;;;;22.20;57.20;;;22.75;39.24;98097.28;4984913;28;119206;-82
2023/07/21 05:56:05;;;;;;;;;;;22.30;57.30;;;22.77;39.27;98097.69;4981904;28;124192;-81
2023/07/21 05:58:34;;;;;;;;;;;22.30;57.30;;;22.77;39.03;98088.44;4975725;28;124047;-81
2023/07/21 06:01:00;;;;;;;;;;;22.30;57.20;;;22.77;38.95;98096.91;4977086;28;119610;-81
2023/07/21 06:03:27;;;;;;;;;;;22.20;56.90;;;22.74;39.25;98100.53;4967462;28;118065;-81
2023/07/21 06:05:54;;;;;;;;;;;22.40;56.90;;;22.76;38.74;98087.66;4987346;28;124157;-81
2023/07/21 06:08:21;;;;;;;;;;;22.40;56.80;;;22.83;38.93;98096.03;4980956;28;124062;-80
2023/07/21 06:10:47;;;;;;;;;;;22.40;56.80;;;22.90;38.95;98093.19;4985076;28;119388;-81
2023/07/21 06:13:13;;;;;;;;;;;22.40;56.80;;;22.99;38.77;98095.56;4985817;28;118676;-81
2023/07/21 06:15:40;;;;;;;;;;;22.50;56.80;;;23.07;38.72;98094.31;4985445;28;124107;-80
2023/07/21 06:18:06;;;;;;;;;;;22.60;56.70;;;23.15;38.39;98093.03;4984255;28;124065;-81
2023/07/21 06:20:32;;;;;;;;;;;22.60;56.50;;;23.18;38.24;98097.03;4972268;28;119564;-80
2023/07/21 06:23:01;;;;;;;;;;;22.70;56.30;;;23.20;38.14;98093.81;4995762;28;118814;-81
2023/07/21 06:25:27;;;;;;;;;;;22.70;56.20;;;23.29;37.87;98097.78;4982637;28;124325;-81
2023/07/21 06:27:53;;;;;;;;;;;22.80;56.20;;;23.34;38.31;98094.50;4981156;28;124045;-88
2023/07/21 06:30:20;;;;;;;;;;;22.80;56.50;;;23.41;38.00;98095.66;4982086;28;120556;-89
2023/07/21 06:32:46;;;;;;;;;;;22.90;56.50;;;23.51;37.84;98100.41;4983794;28;119992;-87
2023/07/21 06:35:12;;;;;;;;;;;23.00;56.10;;;23.60;37.59;98100.72;4987100;28;123633;-88
2023/07/21 06:37:39;;;;;;;;;;;23.00;55.80;;;23.63;37.13;98099.88;4977112;28;123829;-88
2023/07/21 06:40:11;;;;;;;;;;;23.10;55.60;;;23.74;37.58;98097.78;4978142;28;120278;-87
2023/07/21 06:42:43;;;;;;;;;;;23.20;56.00;;;23.85;36.96;98099.69;4981810;28;118546;-89
2023/07/21 06:45:10;;;;;;;;;;;23.20;55.20;;;23.93;36.42;98092.75;4976307;28;124632;-88
2023/07/21 06:47:37;;;;;;;;;;;23.30;54.60;;;23.97;36.70;98094.34;4967487;28;123204;-88
2023/07/21 06:50:04;;;;;;;;;;;23.40;54.90;;;24.05;36.44;98092.25;4974124;28;119502;-89
2023/07/21 06:52:30;;;;;;;;;;;23.50;54.90;;;24.13;36.60;98096.59;4971788;28;118815;-88
2023/07/21 06:54:59;;;;;;;;;;;23.50;54.70;;;24.18;36.58;98098.94;4978079;28;125787;-88
2023/07/21 06:57:30;;;;;;;;;;;23.60;54.80;;;24.17;36.51;98100.16;4964781;28;122047;-87
2023/07/21 07:00:08;;;;;;;;;;;23.60;54.90;;;24.20;36.92;98096.47;4983517;28;119377;-93
2023/07/21 07:02:34;;;;;;;;;;;23.70;55.20;;;24.32;36.34;98100.00;4989875;28;118792;-90
2023/07/21 07:05:01;;;;;;;;;;;23.80;55.20;;;24.42;35.80;98104.69;4969073;28;124114;-91
2023/07/21 07:07:34;;;;;;;;;;;23.90;54.30;;;24.42;35.49;98101.88;4986636;28;124107;-91
2023/07/21 07:10:00;;;;;;;;;;;23.90;53.80;;;24.41;35.08;98101.06;4973236;28;119551;-88
2023/07/21 07:12:26;;;;;;;;;;;23.90;53.10;;;24.44;35.19;98113.56;4982997;28;118549;-88
2023/07/21 07:14:52;;;;;;;;;;;24.00;53.20;;;24.48;34.93;98120.00;4982852;28;124310;-88
2023/07/21 07:17:21;;;;;;;;;;;24.00;52.40;;;24.50;34.56;98128.03;4981882;28;123042;-89
2023/07/21 07:19:47;;;;;;;;;;;24.00;52.10;;;24.45;34.18;98126.50;4980508;28;119065;-91
2023/07/21 07:22:14;;;;;;;;;;;24.00;51.80;;;24.40;34.50;98124.09;4981725;28;119619;-91
2023/07/21 07:24:43;;;;;;;;;;;23.30;51.10;;;24.43;34.57;98123.25;4981098;28;123156;-91
2023/07/21 07:27:11;;;;;;;;;;;24.00;51.80;;;24.42;34.35;98119.63;4986194;28;123787;-93
2023/07/21 07:29:40;;;;;;;;;;;24.10;51.70;;;24.41;34.53;98115.19;4998621;28;119638;-92
2023/07/21 07:32:07;;;;;;;;;;;24.10;51.70;;;24.41;34.48;98136.97;4987168;28;117257;-91
2023/07/21 07:34:33;;;;;;;;;;;24.10;51.70;;;24.37;34.40;98122.13;4987594;28;124026;-92
2023/07/21 07:37:04;;;;;;;;;;;24.00;51.50;;;24.32;34.37;98134.69;4986038;28;123419;-93
2023/07/21 07:39:30;;;;;;;;;;;24.00;51.60;;;24.25;34.58;98124.25;4974368;28;118558;-94
2023/07/21 07:41:57;;;;;;;;;;;23.90;51.60;;;24.23;34.73;98126.72;4980819;28;118949;-87
2023/07/21 07:44:23;;;;;;;;;;;23.90;51.70;;;24.19;34.72;98125.94;4981581;28;123528;-92
2023/07/21 07:46:54;;;;;;;;;;;23.90;51.80;;;24.24;34.69;98121.88;4981770;28;124268;-93
2023/07/21 07:49:21;;;;;;;;;;;23.90;51.80;;;24.31;34.24;98126.63;4984565;28;119532;-92
2023/07/21 07:51:48;;;;;;;;;;;23.90;51.60;;;24.35;34.27;98121.75;4984789;28;118921;-90
2023/07/21 07:54:16;;;;;;;;;;;23.90;51.50;;;24.36;34.32;98123.31;4979429;28;124146;-91
2023/07/21 07:56:51;;;;;;;;;;;22.30;49.80;;;24.36;34.20;98120.50;4983636;28;123887;-92
2023/07/21 07:59:18;;;;;;;;;;;23.90;51.20;;;24.38;34.04;98123.72;4980900;28;118660;-88
2023/07/21 08:01:50;;;;;;;;;;;24.00;51.20;;;24.39;34.02;98134.56;4996588;28;118722;-90
2023/07/21 08:04:19;;;;;;;;;;;24.00;51.20;;;24.43;34.28;98140.19;5001004;28;124267;-89
2023/07/21 08:06:45;;;;;;;;;;;24.00;51.30;;;24.45;34.34;98144.22;4987159;28;124696;-92
2023/07/21 08:09:22;;;;;;;;;;;24.10;51.40;;;24.46;34.43;98145.03;4999506;28;120520;-94
2023/07/21 08:11:48;;;;;;;;;;;24.10;51.50;;;24.52;34.38;98139.72;4984956;28;119633;-89
2023/07/21 08:14:15;;;;;;;;;;;24.10;51.60;;;24.61;34.16;98146.47;4986648;28;124400;-89
2023/07/21 08:16:41;;;;;;;;;;;24.20;51.50;;;24.67;34.05;98143.97;4988445;28;124393;-91
2023/07/21 08:19:07;;;;;;;;;;;24.20;51.40;;;24.77;34.10;98142.19;4990610;28;118117;-92
2023/07/21 08:21:33;;;;;;;;;;;24.30;52.10;;;24.83;33.69;98127.19;4986582;28;118932;-90
2023/07/21 08:24:02;;;;;;;;;;;24.30;51.30;;;24.90;34.02;98129.09;4988757;28;124264;-91
2023/07/21 08:26:28;;;;;;;;;;;24.40;51.10;;;24.94;33.46;98124.22;4989357;28;123837;-91
2023/07/21 08:28:55;;;;;;;;;;;24.40;50.90;;;25.00;33.36;98130.97;4964157;28;118399;-92
2023/07/21 08:31:23;;;;;;;;;;;24.50;50.90;;;25.04;33.11;98134.56;4979752;28;118773;-91
2023/07/21 08:33:51;;;;;;;;;;;25.20;51.00;;;25.06;32.79;98134.13;4990697;28;123225;-91
2023/07/21 08:36:17;;;;;;;;;;;24.50;50.00;;;25.07;33.02;98132.91;4987646;28;123151;-90
2023/07/21 08:38:43;;;;;;;;;;;24.60;50.40;;;25.11;33.44;98137.28;4983500;28;119419;-93
2023/07/21 08:41:17;;;;;;;;;;;24.70;50.60;;;25.11;32.47;98123.13;4986912;28;118651;-89
2023/07/21 08:43:43;;;;;;;;;;;24.70;49.30;;;25.17;32.49;98125.53;4989063;28;123241;-92
2023/07/21 08:46:09;;;;;;;;;;;24.80;49.40;;;25.25;32.05;98127.81;4974986;28;122008;-91
2023/07/21 08:48:39;;;;;;;;;;;24.80;48.60;;;25.29;32.23;98128.56;4982783;28;119360;-91
2023/07/21 08:51:09;;;;;;;;;;;24.90;48.60;;;25.34;31.44;98132.94;4989543;28;119351;-93
2023/07/21 08:53:36;;;;;;;;;;;24.90;48.50;;;25.41;31.48;98126.34;4998172;28;123811;-86
2023/07/21 08:56:03;;;;;;;;;;;24.90;47.70;;;25.48;31.03;98112.91;4990525;28;123886;-86
2023/07/21 08:58:30;;;;;;;;;;;25.00;47.60;;;25.55;31.52;98124.09;4993179;28;120616;-91
2023/07/21 09:00:59;;;;;;;;;;;25.10;48.00;;;25.63;30.82;98130.44;4989879;28;120433;-90
2023/07/21 09:03:29;;;;;;;;;;;25.10;47.70;;;25.68;30.81;98131.97;5005786;28;124506;-93
2023/07/21 09:06:00;;;;;;;;;;;25.20;47.50;;;25.71;30.26;98129.09;4998834;28;123265;-93
2023/07/21 09:08:30;;;;;;;;;;;25.20;46.60;;;25.75;30.03;98134.69;4969917;28;119963;-93
2023/07/21 09:11:01;;;;;;;;;;;25.20;46.20;;;25.81;29.86;98129.31;4985440;28;118771;-90
2023/07/21 09:13:28;;;;;;;;;;;25.30;46.20;;;25.84;30.44;98122.81;4979030;28;123461;-91
2023/07/21 09:15:56;;;;;;;;;;;25.30;46.40;;;25.88;30.59;98124.38;4985798;28;123860;-90
2023/07/21 09:18:27;;;;;;;;;;;25.40;46.60;;;25.88;29.46;98135.69;4986058;28;120111;-93
2023/07/21 09:20:55;;;;;;;;;;;25.40;44.90;;;25.88;29.57;98135.69;4989914;28;118920;-92
2023/07/21 09:23:23;;;;;;;;;;;25.50;45.40;;;25.91;29.27;98123.50;4986275;28;123194;-93
2023/07/21 09:25:51;;;;;;;;;;;25.50;44.90;;;25.92;29.22;98129.94;4989307;28;124767;-89
2023/07/21 09:28:17;;;;;;;;;;;25.50;44.50;;;25.89;28.80;98120.28;4980408;28;119509;-82
2023/07/21 09:30:53;;;;;;;;;;;25.50;43.90;;;25.91;29.19;98123.50;4980888;28;118526;-83
2023/07/21 09:33:26;;;;;;;;;;;25.60;44.30;;;25.99;28.35;98127.00;4972814;28;124842;-83
2023/07/21 09:36:15;;;;;;;;;;;25.60;44.00;;;26.03;28.14;98124.88;4981012;28;124478;-82
2023/07/21 09:38:43;;;;;;;;;;;26.80;44.10;;;26.08;28.11;98132.88;4982452;28;120237;-83
2023/07/21 09:41:23;;;;;;;;;;;25.60;43.60;;;26.10;28.14;98118.31;4974127;28;118784;-82
2023/07/21 09:43:50;;;;;;;;;;;25.70;43.40;;;26.10;28.14;98121.94;4980241;28;124365;-83
2023/07/21 09:46:17;;;;;;;;;;;25.70;43.50;;;26.14;28.63;98119.84;4967644;28;122802;-83
2023/07/21 09:48:44;;;;;;;;;;;25.70;43.70;;;26.18;28.18;98116.94;4983285;28;120916;-83
2023/07/21 09:51:12;;;;;;;;;;;25.70;42.90;;;26.12;28.23;98113.81;4980877;28;119846;-82
2023/07/21 09:53:39;;;;;;;;;;;25.70;43.00;;;26.07;28.62;98119.16;4981898;28;124306;-83
2023/07/21 09:56:08;;;;;;;;;;;25.70;43.30;;;26.08;28.26;98127.22;4980846;28;123938;-82
2023/07/21 09:58:54;;;;;;;;;;;25.70;43.40;;;26.09;28.47;98114.69;4970085;28;119457;-82
2023/07/21 10:01:20;;;;;;;;;;;25.70;43.60;;;26.03;27.99;98102.22;4983060;28;119208;-82
2023/07/21 10:03:47;;;;;;;;;;;25.70;43.20;;;26.02;28.34;98106.31;4967431;28;123193;-82
2023/07/21 10:06:15;;;;;;;;;;;25.70;43.20;;;26.05;27.92;98102.59;4981259;28;125353;-83
2023/07/21 10:08:42;;;;;;;;;;;25.70;43.00;;;26.02;27.78;98092.16;4982412;28;119802;-82
2023/07/21 10:11:11;;;;;;;;;;;25.60;42.70;;;26.00;28.44;98095.41;4981135;28;119593;-83
2023/07/21 10:13:45;;;;;;;;;;;25.60;43.10;;;25.97;28.35;98087.78;4987728;28;124376;-83
2023/07/21 10:16:14;;;;;;;;;;;25.60;42.70;;;26.00;28.00;98086.91;4969302;28;122226;-82
2023/07/21 10:18:59;;;;;;;;;;;25.60;42.90;;;26.00;28.34;98075.59;4982664;28;119691;-81
2023/07/21 10:21:33;;;;;;;;;;;25.60;42.80;;;26.07;28.35;98090.88;4982347;28;118631;-82
2023/07/21 10:24:02;;;;;;;;;;;25.70;43.00;;;26.12;27.86;98093.97;4983652;28;123597;-81
2023/07/21 10:26:30;;;;;;;;;;;25.70;42.90;;;26.14;28.11;98083.03;4962555;28;123429;-82
2023/07/21 10:29:13;;;;;;;;;;;25.70;42.60;;;26.13;28.22;98089.13;4983853;28;119452;-82
2023/07/21 10:31:50;;;;;;;;;;;25.80;42.60;;;26.14;28.10;98090.69;4985659;28;119480;-82
2023/07/21 10:34:17;;;;;;;;;;;25.80;42.70;;;26.19;28.02;98098.69;4981374;28;124814;-81
2023/07/21 10:36:49;;;;;;;;;;;25.80;43.40;;;26.24;27.94;98106.69;4985286;28;124158;-82
2023/07/21 10:39:20;;;;;;;;;;;25.90;42.50;;;26.26;27.96;98112.72;4983715;28;121784;-81
2023/07/21 10:41:47;;;;;;;;;;;25.90;42.40;;;26.27;27.58;98105.81;4977986;28;119548;-81
2023/07/21 10:44:14;;;;;;;;;;;25.90;42.30;;;26.30;27.57;98099.28;4977844;28;124333;-81
2023/07/21 10:46:45;;;;;;;;;;;25.90;42.40;;;26.31;27.33;98102.94;4983748;28;125969;-82
2023/07/21 10:49:13;;;;;;;;;;;25.90;42.20;;;26.27;27.16;98097.31;4983122;28;119393;-82
2023/07/21 10:51:47;;;;;;;;;;;25.90;41.90;;;26.27;27.66;98094.47;4977352;28;119312;-82
2023/07/21 10:54:14;;;;;;;;;;;25.90;41.90;;;26.31;27.57;98083.91;4977311;28;124176;-82
2023/07/21 10:56:45;;;;;;;;;;;25.90;42.10;;;26.39;27.68;98079.69;4984367;28;123254;-82
2023/07/21 10:59:13;;;;;;;;;;;25.90;42.20;;;26.48;27.53;98075.44;4966254;28;119287;-81
2023/07/21 11:01:41;;;;;;;;;;;26.00;42.40;;;26.58;27.90;98080.13;4957826;28;118009;-82
2023/07/21 11:04:07;;;;;;;;;;;26.00;42.60;;;26.67;27.16;98088.81;4981712;28;124159;-82
2023/07/21 11:07:00;;;;;;;;;;;26.10;42.20;;;26.70;27.55;98082.28;4977055;28;124013;-83
2023/07/21 11:09:27;;;;;;;;;;;26.20;42.20;;;26.75;27.21;98084.59;4959394;28;118488;-81
2023/07/21 11:11:57;;;;;;;;;;;26.30;42.10;;;26.76;27.08;98091.88;4977636;28;119138;-82
2023/07/21 11:14:25;;;;;;;;;;;26.30;41.60;;;26.78;27.63;98089.38;4967217;28;124256;-83